BEL7VN EBBR-LOWW
Flight info
| Callsign | BEL7VN |
|---|---|
| Flight time | 1h 12m |
| Altitude | 37000 |
| Route | SOPOK Y863 ROPUV L607 EMGOD DCT BOMBI DCT BOREP DCT ENITA DCT ETVIS DCT BUDEX BUDEX2W |
| Aircraft | A319/M-DE3FGIJ1LORVWY/HB1 |
Departure
| Time | 2026-05-07 19:44 |
|---|---|
| Airport | Brussels Airport (EBBR) |
Arrival
| Time | 2026-05-07 20:56 |
|---|---|
| Airport | Vienna International Airport (LOWW) |
| Time | Latitude | Longitude | Altitude | Speed | Heading |
|---|---|---|---|---|---|
| 2026-05-07 19:06 | 50.90514 | 4.48953 | 117 ft | 0 kts | 155° |
| 2026-05-07 19:34 | 50.90515 | 4.48952 | 121 ft | 2 kts | 155° |
| 2026-05-07 19:34 | 50.90538 | 4.48935 | 116 ft | 4 kts | 152° |
| 2026-05-07 19:34 | 50.90561 | 4.48914 | 117 ft | 4 kts | 144° |
| 2026-05-07 19:35 | 50.90580 | 4.48886 | 117 ft | 4 kts | 115° |
| 2026-05-07 19:35 | 50.90583 | 4.48860 | 118 ft | 0 kts | 65° |
| 2026-05-07 19:37 | 50.90586 | 4.48871 | 118 ft | 2 kts | 65° |
| 2026-05-07 19:37 | 50.90593 | 4.48896 | 118 ft | 3 kts | 65° |
| 2026-05-07 19:37 | 50.90602 | 4.48927 | 118 ft | 0 kts | 65° |
| 2026-05-07 19:37 | 50.90603 | 4.48928 | 118 ft | 0 kts | 65° |
| 2026-05-07 19:38 | 50.90605 | 4.48937 | 119 ft | 1 kts | 65° |
| 2026-05-07 19:38 | 50.90611 | 4.48956 | 119 ft | 2 kts | 65° |
| 2026-05-07 19:38 | 50.90619 | 4.48984 | 119 ft | 3 kts | 65° |
| 2026-05-07 19:38 | 50.90629 | 4.49021 | 118 ft | 4 kts | 65° |
| 2026-05-07 19:39 | 50.90637 | 4.49047 | 120 ft | 0 kts | 65° |
| 2026-05-07 19:40 | 50.90641 | 4.49059 | 118 ft | 2 kts | 66° |
| 2026-05-07 19:41 | 50.90650 | 4.49083 | 119 ft | 3 kts | 51° |
| 2026-05-07 19:41 | 50.90673 | 4.49100 | 121 ft | 4 kts | 10° |
| 2026-05-07 19:41 | 50.90714 | 4.49096 | 121 ft | 7 kts | 0° |
| 2026-05-07 19:41 | 50.90744 | 4.49143 | 122 ft | 7 kts | 64° |
| 2026-05-07 19:42 | 50.90765 | 4.49215 | 121 ft | 9 kts | 63° |
| 2026-05-07 19:42 | 50.90800 | 4.49336 | 119 ft | 13 kts | 65° |
| 2026-05-07 19:42 | 50.90838 | 4.49468 | 123 ft | 13 kts | 65° |
| 2026-05-07 19:42 | 50.90879 | 4.49611 | 122 ft | 17 kts | 65° |
| 2026-05-07 19:43 | 50.90973 | 4.49633 | 122 ft | 17 kts | 300° |
| 2026-05-07 19:43 | 50.90980 | 4.49434 | 120 ft | 19 kts | 266° |
| 2026-05-07 19:43 | 50.90898 | 4.49043 | 121 ft | 74 kts | 245° |
| 2026-05-07 19:43 | 50.90581 | 4.47950 | 122 ft | 142 kts | 245° |
| 2026-05-07 19:44 | 50.90117 | 4.46357 | 484 ft | 161 kts | 245° |
| 2026-05-07 19:44 | 50.89649 | 4.44760 | 1241 ft | 159 kts | 245° |
| 2026-05-07 19:44 | 50.89183 | 4.43170 | 1912 ft | 162 kts | 241° |
| 2026-05-07 19:44 | 50.88297 | 4.41973 | 2264 ft | 183 kts | 197° |
| 2026-05-07 19:45 | 50.86980 | 4.42055 | 2576 ft | 205 kts | 155° |
| 2026-05-07 19:45 | 50.85847 | 4.43607 | 2964 ft | 230 kts | 129° |
| 2026-05-07 19:45 | 50.84772 | 4.45658 | 3566 ft | 251 kts | 129° |
| 2026-05-07 19:45 | 50.83642 | 4.47821 | 4504 ft | 258 kts | 129° |
| 2026-05-07 19:46 | 50.82487 | 4.50020 | 5522 ft | 262 kts | 129° |
| 2026-05-07 19:46 | 50.81307 | 4.52255 | 6500 ft | 268 kts | 130° |
| 2026-05-07 19:46 | 50.80089 | 4.54546 | 6911 ft | 278 kts | 130° |
| 2026-05-07 19:46 | 50.78798 | 4.56960 | 7119 ft | 293 kts | 131° |
| 2026-05-07 19:47 | 50.77476 | 4.59422 | 8121 ft | 288 kts | 131° |
| 2026-05-07 19:47 | 50.76194 | 4.61812 | 9361 ft | 285 kts | 131° |
| 2026-05-07 19:47 | 50.74906 | 4.64221 | 10286 ft | 290 kts | 131° |
| 2026-05-07 19:47 | 50.73594 | 4.66791 | 10661 ft | 314 kts | 123° |
| 2026-05-07 19:48 | 50.72761 | 4.70114 | 10929 ft | 339 kts | 104° |
| 2026-05-07 19:48 | 50.72380 | 4.72620 | 11095 ft | 355 kts | 103° |
| 2026-05-07 19:48 | 50.71820 | 4.76498 | 11590 ft | 367 kts | 103° |
| 2026-05-07 19:48 | 50.71263 | 4.80465 | 12307 ft | 373 kts | 103° |
| 2026-05-07 19:49 | 50.70699 | 4.84482 | 13047 ft | 378 kts | 103° |
| 2026-05-07 19:49 | 50.70120 | 4.88550 | 13774 ft | 383 kts | 104° |
| 2026-05-07 19:49 | 50.69527 | 4.92668 | 14441 ft | 387 kts | 104° |
| 2026-05-07 19:49 | 50.68923 | 4.96824 | 15096 ft | 391 kts | 104° |
| 2026-05-07 19:50 | 50.68306 | 5.01027 | 15753 ft | 395 kts | 104° |
| 2026-05-07 19:50 | 50.67683 | 5.05270 | 16407 ft | 399 kts | 104° |
| 2026-05-07 19:50 | 50.67050 | 5.09554 | 17052 ft | 403 kts | 104° |
| 2026-05-07 19:50 | 50.66417 | 5.13823 | 17682 ft | 407 kts | 104° |
| 2026-05-07 19:51 | 50.65768 | 5.18188 | 18330 ft | 411 kts | 104° |
| 2026-05-07 19:51 | 50.65109 | 5.22598 | 18886 ft | 415 kts | 104° |
| 2026-05-07 19:51 | 50.64444 | 5.27044 | 19416 ft | 419 kts | 104° |
| 2026-05-07 19:51 | 50.63773 | 5.31529 | 19952 ft | 422 kts | 104° |
| 2026-05-07 19:52 | 50.63094 | 5.36044 | 20479 ft | 426 kts | 104° |
| 2026-05-07 19:52 | 50.62409 | 5.40599 | 20997 ft | 429 kts | 104° |
| 2026-05-07 19:52 | 50.61715 | 5.45187 | 21500 ft | 432 kts | 104° |
| 2026-05-07 19:52 | 50.61014 | 5.49812 | 21995 ft | 436 kts | 104° |
| 2026-05-07 19:53 | 50.60308 | 5.54467 | 22478 ft | 439 kts | 104° |
| 2026-05-07 19:53 | 50.59595 | 5.59158 | 22946 ft | 442 kts | 104° |
| 2026-05-07 19:53 | 50.58875 | 5.63881 | 23418 ft | 445 kts | 104° |
| 2026-05-07 19:53 | 50.58148 | 5.68628 | 23850 ft | 448 kts | 104° |
| 2026-05-07 19:54 | 50.57413 | 5.73410 | 24252 ft | 451 kts | 104° |
| 2026-05-07 19:54 | 50.56670 | 5.78222 | 24639 ft | 454 kts | 104° |
| 2026-05-07 19:54 | 50.55921 | 5.83053 | 25033 ft | 456 kts | 105° |
| 2026-05-07 19:54 | 50.55165 | 5.87914 | 25413 ft | 459 kts | 105° |
| 2026-05-07 19:55 | 50.54404 | 5.92798 | 25796 ft | 461 kts | 105° |
| 2026-05-07 19:55 | 50.53639 | 5.97705 | 26163 ft | 464 kts | 105° |
| 2026-05-07 19:55 | 50.52869 | 6.02641 | 26526 ft | 466 kts | 105° |
| 2026-05-07 19:55 | 50.52093 | 6.07596 | 26892 ft | 468 kts | 105° |
| 2026-05-07 19:56 | 50.51311 | 6.12574 | 27254 ft | 470 kts | 105° |
| 2026-05-07 19:56 | 50.50523 | 6.17571 | 27596 ft | 472 kts | 105° |
| 2026-05-07 19:56 | 50.49730 | 6.22588 | 27931 ft | 475 kts | 105° |
| 2026-05-07 19:56 | 50.48931 | 6.27631 | 28256 ft | 477 kts | 105° |
| 2026-05-07 19:57 | 50.48123 | 6.32692 | 28582 ft | 479 kts | 105° |
| 2026-05-07 19:57 | 50.47310 | 6.37765 | 29003 ft | 479 kts | 105° |
| 2026-05-07 19:57 | 50.46497 | 6.42826 | 29474 ft | 478 kts | 105° |
| 2026-05-07 19:57 | 50.45685 | 6.47877 | 29940 ft | 477 kts | 105° |
| 2026-05-07 19:58 | 50.44871 | 6.52917 | 30376 ft | 476 kts | 105° |
| 2026-05-07 19:58 | 50.44057 | 6.57947 | 30782 ft | 475 kts | 105° |
| 2026-05-07 19:58 | 50.43244 | 6.62966 | 31190 ft | 474 kts | 105° |
| 2026-05-07 19:58 | 50.42434 | 6.67972 | 31570 ft | 474 kts | 105° |
| 2026-05-07 19:59 | 50.41620 | 6.72983 | 31966 ft | 474 kts | 105° |
| 2026-05-07 19:59 | 50.40802 | 6.77973 | 32375 ft | 473 kts | 105° |
| 2026-05-07 19:59 | 50.39980 | 6.82966 | 32787 ft | 472 kts | 105° |
| 2026-05-07 19:59 | 50.39159 | 6.87946 | 33184 ft | 472 kts | 105° |
| 2026-05-07 20:00 | 50.38337 | 6.92920 | 33581 ft | 471 kts | 105° |
| 2026-05-07 20:00 | 50.37515 | 6.97885 | 34018 ft | 470 kts | 105° |
| 2026-05-07 20:00 | 50.36692 | 7.02834 | 34404 ft | 469 kts | 105° |
| 2026-05-07 20:00 | 50.35868 | 7.07769 | 34733 ft | 469 kts | 105° |
| 2026-05-07 20:01 | 50.35042 | 7.12706 | 35050 ft | 469 kts | 105° |
| 2026-05-07 20:01 | 50.34215 | 7.17646 | 35350 ft | 469 kts | 105° |
| 2026-05-07 20:01 | 50.33386 | 7.22588 | 35634 ft | 470 kts | 106° |
| 2026-05-07 20:01 | 50.32554 | 7.27537 | 35908 ft | 470 kts | 106° |
| 2026-05-07 20:02 | 50.31721 | 7.32480 | 36172 ft | 471 kts | 106° |
| 2026-05-07 20:02 | 50.30884 | 7.37411 | 36417 ft | 471 kts | 106° |
| 2026-05-07 20:02 | 50.30037 | 7.42386 | 36676 ft | 472 kts | 106° |
| 2026-05-07 20:02 | 50.29190 | 7.47339 | 36932 ft | 472 kts | 106° |
| 2026-05-07 20:03 | 50.28336 | 7.52307 | 37055 ft | 474 kts | 106° |
| 2026-05-07 20:03 | 50.27472 | 7.57308 | 37083 ft | 479 kts | 106° |
| 2026-05-07 20:03 | 50.25727 | 7.67413 | 37079 ft | 483 kts | 106° |
| 2026-05-07 20:04 | 50.23981 | 7.77546 | 37082 ft | 483 kts | 106° |
| 2026-05-07 20:04 | 50.22223 | 7.87684 | 37076 ft | 484 kts | 106° |
| 2026-05-07 20:05 | 50.20449 | 7.97824 | 37089 ft | 484 kts | 106° |
| 2026-05-07 20:05 | 50.18666 | 8.07955 | 37100 ft | 485 kts | 106° |
| 2026-05-07 20:06 | 50.16867 | 8.18087 | 37103 ft | 485 kts | 107° |
| 2026-05-07 20:06 | 50.15061 | 8.28212 | 37098 ft | 485 kts | 106° |
| 2026-05-07 20:07 | 50.13250 | 8.38329 | 37098 ft | 485 kts | 106° |
| 2026-05-07 20:07 | 50.11430 | 8.48444 | 37087 ft | 484 kts | 107° |
| 2026-05-07 20:08 | 50.09603 | 8.58541 | 37079 ft | 485 kts | 107° |
| 2026-05-07 20:08 | 50.07760 | 8.68643 | 37080 ft | 485 kts | 107° |
| 2026-05-07 20:09 | 50.05955 | 8.78770 | 37083 ft | 489 kts | 102° |
| 2026-05-07 20:10 | 50.05051 | 8.94599 | 37106 ft | 490 kts | 94° |
| 2026-05-07 20:10 | 50.04591 | 9.05284 | 37082 ft | 495 kts | 94° |
| 2026-05-07 20:11 | 50.04116 | 9.15860 | 37070 ft | 488 kts | 94° |
| 2026-05-07 20:11 | 50.03636 | 9.26367 | 37076 ft | 487 kts | 94° |
| 2026-05-07 20:12 | 50.03156 | 9.36884 | 37083 ft | 487 kts | 94° |
| 2026-05-07 20:12 | 50.02660 | 9.47386 | 37081 ft | 487 kts | 95° |
| 2026-05-07 20:13 | 50.02156 | 9.57892 | 37079 ft | 487 kts | 95° |
| 2026-05-07 20:13 | 50.01644 | 9.68398 | 37093 ft | 487 kts | 95° |
| 2026-05-07 20:14 | 50.01121 | 9.78895 | 37092 ft | 487 kts | 95° |
| 2026-05-07 20:14 | 50.00588 | 9.89386 | 37095 ft | 487 kts | 95° |
| 2026-05-07 20:15 | 49.99672 | 9.99774 | 37095 ft | 485 kts | 109° |
| 2026-05-07 20:15 | 49.97519 | 10.09685 | 37074 ft | 484 kts | 110° |
| 2026-05-07 20:16 | 49.95314 | 10.19575 | 37069 ft | 485 kts | 110° |
| 2026-05-07 20:16 | 49.93097 | 10.29468 | 37080 ft | 485 kts | 110° |
| 2026-05-07 20:17 | 49.90876 | 10.39357 | 37080 ft | 486 kts | 110° |
| 2026-05-07 20:17 | 49.88649 | 10.49246 | 37078 ft | 486 kts | 110° |
| 2026-05-07 20:18 | 49.86424 | 10.59136 | 37071 ft | 486 kts | 110° |
| 2026-05-07 20:18 | 49.84195 | 10.69029 | 37075 ft | 486 kts | 110° |
| 2026-05-07 20:19 | 49.81963 | 10.78917 | 37076 ft | 486 kts | 110° |
| 2026-05-07 20:19 | 49.79727 | 10.88803 | 37078 ft | 487 kts | 110° |
| 2026-05-07 20:20 | 49.77491 | 10.98689 | 37071 ft | 487 kts | 110° |
| 2026-05-07 20:20 | 49.75255 | 11.08577 | 37074 ft | 487 kts | 110° |
| 2026-05-07 20:21 | 49.73014 | 11.18469 | 37080 ft | 487 kts | 110° |
| 2026-05-07 20:21 | 49.70773 | 11.28351 | 37075 ft | 487 kts | 110° |
| 2026-05-07 20:22 | 49.68529 | 11.38230 | 37071 ft | 487 kts | 110° |
| 2026-05-07 20:22 | 49.66287 | 11.48110 | 37070 ft | 487 kts | 110° |
| 2026-05-07 20:23 | 49.64044 | 11.57975 | 37071 ft | 488 kts | 110° |
| 2026-05-07 20:23 | 49.61795 | 11.67840 | 37064 ft | 488 kts | 110° |
| 2026-05-07 20:24 | 49.59542 | 11.77706 | 37059 ft | 488 kts | 110° |
| 2026-05-07 20:24 | 49.57295 | 11.87581 | 37045 ft | 488 kts | 110° |
| 2026-05-07 20:25 | 49.55045 | 11.97460 | 37053 ft | 489 kts | 110° |
| 2026-05-07 20:25 | 49.52792 | 12.07339 | 37056 ft | 489 kts | 110° |
| 2026-05-07 20:26 | 49.50535 | 12.17221 | 37068 ft | 490 kts | 111° |
| 2026-05-07 20:26 | 49.48279 | 12.27109 | 37077 ft | 490 kts | 110° |
| 2026-05-07 20:27 | 49.46023 | 12.36990 | 37076 ft | 490 kts | 111° |
| 2026-05-07 20:27 | 49.43766 | 12.46868 | 37078 ft | 490 kts | 111° |
| 2026-05-07 20:28 | 49.41507 | 12.56737 | 37079 ft | 490 kts | 111° |
| 2026-05-07 20:28 | 49.39256 | 12.66616 | 37072 ft | 490 kts | 111° |
| 2026-05-07 20:29 | 49.37012 | 12.76490 | 37073 ft | 490 kts | 111° |
| 2026-05-07 20:29 | 49.35144 | 12.84695 | 37073 ft | 490 kts | 111° |
| 2026-05-07 20:30 | 49.32894 | 12.94558 | 37077 ft | 490 kts | 111° |
| 2026-05-07 20:30 | 49.30643 | 13.04428 | 37080 ft | 490 kts | 111° |
| 2026-05-07 20:31 | 49.28390 | 13.14288 | 37085 ft | 490 kts | 111° |
| 2026-05-07 20:31 | 49.26133 | 13.24143 | 37084 ft | 491 kts | 111° |
| 2026-05-07 20:32 | 49.23873 | 13.33990 | 37084 ft | 491 kts | 111° |
| 2026-05-07 20:32 | 49.21528 | 13.43793 | 37068 ft | 489 kts | 114° |
| 2026-05-07 20:33 | 49.18701 | 13.53238 | 37079 ft | 488 kts | 119° |
| 2026-05-07 20:33 | 49.15527 | 13.62389 | 37073 ft | 487 kts | 121° |
| 2026-05-07 20:34 | 49.12305 | 13.71500 | 37077 ft | 488 kts | 120° |
| 2026-05-07 20:34 | 49.09573 | 13.80994 | 37065 ft | 490 kts | 114° |
| 2026-05-07 20:35 | 49.07099 | 13.90672 | 37074 ft | 490 kts | 113° |
| 2026-05-07 20:35 | 49.04628 | 14.00351 | 37076 ft | 490 kts | 113° |
| 2026-05-07 20:36 | 49.02146 | 14.10021 | 37074 ft | 490 kts | 114° |
| 2026-05-07 20:36 | 48.99648 | 14.19674 | 37080 ft | 490 kts | 114° |
| 2026-05-07 20:37 | 48.97135 | 14.29317 | 37066 ft | 490 kts | 114° |
| 2026-05-07 20:37 | 48.94616 | 14.38953 | 37061 ft | 490 kts | 114° |
| 2026-05-07 20:38 | 48.92101 | 14.48516 | 37063 ft | 490 kts | 114° |
| 2026-05-07 20:38 | 48.89564 | 14.58123 | 37064 ft | 490 kts | 114° |
| 2026-05-07 20:39 | 48.87011 | 14.67803 | 37062 ft | 490 kts | 114° |
| 2026-05-07 20:39 | 48.84486 | 14.77330 | 37068 ft | 489 kts | 115° |
| 2026-05-07 20:40 | 48.81937 | 14.86896 | 37055 ft | 482 kts | 115° |
| 2026-05-07 20:40 | 48.79408 | 14.96314 | 37054 ft | 482 kts | 115° |
| 2026-05-07 20:40 | 48.78142 | 15.01015 | 36929 ft | 482 kts | 115° |
| 2026-05-07 20:41 | 48.76875 | 15.05715 | 36572 ft | 482 kts | 115° |
| 2026-05-07 20:41 | 48.75596 | 15.10445 | 35610 ft | 487 kts | 115° |
| 2026-05-07 20:41 | 48.74310 | 15.15186 | 34877 ft | 486 kts | 115° |
| 2026-05-07 20:41 | 48.73012 | 15.19965 | 33886 ft | 492 kts | 115° |
| 2026-05-07 20:42 | 48.71717 | 15.24744 | 33087 ft | 489 kts | 115° |
| 2026-05-07 20:42 | 48.70423 | 15.29512 | 32160 ft | 490 kts | 115° |
| 2026-05-07 20:42 | 48.69143 | 15.34208 | 31247 ft | 489 kts | 115° |
| 2026-05-07 20:42 | 48.67841 | 15.38967 | 30329 ft | 489 kts | 115° |
| 2026-05-07 20:43 | 48.66542 | 15.43712 | 29258 ft | 488 kts | 115° |
| 2026-05-07 20:43 | 48.65243 | 15.48451 | 28040 ft | 488 kts | 115° |
| 2026-05-07 20:43 | 48.63940 | 15.53198 | 26752 ft | 490 kts | 115° |
| 2026-05-07 20:43 | 48.62630 | 15.57962 | 25423 ft | 493 kts | 115° |
| 2026-05-07 20:44 | 48.61304 | 15.62761 | 24114 ft | 495 kts | 115° |
| 2026-05-07 20:44 | 48.59982 | 15.67528 | 23138 ft | 489 kts | 115° |
| 2026-05-07 20:44 | 48.58676 | 15.72231 | 22121 ft | 482 kts | 115° |
| 2026-05-07 20:44 | 48.57386 | 15.76875 | 21163 ft | 476 kts | 115° |
| 2026-05-07 20:45 | 48.56111 | 15.81458 | 20243 ft | 470 kts | 115° |
| 2026-05-07 20:45 | 48.54855 | 15.85968 | 19394 ft | 463 kts | 114° |
| 2026-05-07 20:45 | 48.53613 | 15.90421 | 18563 ft | 457 kts | 114° |
| 2026-05-07 20:45 | 48.52385 | 15.94810 | 17695 ft | 452 kts | 114° |
| 2026-05-07 20:46 | 48.51166 | 15.99150 | 16819 ft | 446 kts | 114° |
| 2026-05-07 20:46 | 48.49959 | 16.03430 | 15972 ft | 442 kts | 114° |
| 2026-05-07 20:46 | 48.48764 | 16.07670 | 15172 ft | 437 kts | 114° |
| 2026-05-07 20:46 | 48.47579 | 16.11873 | 14393 ft | 433 kts | 114° |
| 2026-05-07 20:47 | 48.46406 | 16.16029 | 13630 ft | 430 kts | 114° |
| 2026-05-07 20:47 | 48.45245 | 16.20146 | 13000 ft | 421 kts | 114° |
| 2026-05-07 20:47 | 48.44104 | 16.24176 | 12245 ft | 417 kts | 114° |
| 2026-05-07 20:47 | 48.42969 | 16.28171 | 11516 ft | 412 kts | 114° |
| 2026-05-07 20:48 | 48.41847 | 16.32114 | 10895 ft | 408 kts | 114° |
| 2026-05-07 20:48 | 48.40726 | 16.36049 | 10707 ft | 409 kts | 114° |
| 2026-05-07 20:48 | 48.39605 | 16.39976 | 10536 ft | 408 kts | 114° |
| 2026-05-07 20:48 | 48.38483 | 16.43897 | 10357 ft | 408 kts | 114° |
| 2026-05-07 20:49 | 48.37362 | 16.47809 | 10181 ft | 406 kts | 114° |
| 2026-05-07 20:49 | 48.36235 | 16.51672 | 9733 ft | 403 kts | 116° |
| 2026-05-07 20:49 | 48.34649 | 16.55098 | 9171 ft | 398 kts | 133° |
| 2026-05-07 20:49 | 48.32763 | 16.58114 | 8619 ft | 395 kts | 134° |
| 2026-05-07 20:50 | 48.30875 | 16.61101 | 8086 ft | 392 kts | 134° |
| 2026-05-07 20:50 | 48.29000 | 16.64051 | 7465 ft | 389 kts | 134° |
| 2026-05-07 20:50 | 48.27137 | 16.66974 | 6849 ft | 386 kts | 134° |
| 2026-05-07 20:50 | 48.25287 | 16.69873 | 6231 ft | 383 kts | 134° |
| 2026-05-07 20:51 | 48.23448 | 16.72751 | 5588 ft | 381 kts | 134° |
| 2026-05-07 20:51 | 48.21576 | 16.75517 | 4926 ft | 374 kts | 142° |
| 2026-05-07 20:51 | 48.19271 | 16.77183 | 4222 ft | 368 kts | 167° |
| 2026-05-07 20:51 | 48.16765 | 16.77652 | 3500 ft | 359 kts | 180° |
| 2026-05-07 20:52 | 48.14324 | 16.77505 | 3105 ft | 341 kts | 188° |
| 2026-05-07 20:52 | 48.12060 | 16.77112 | 2981 ft | 312 kts | 190° |
| 2026-05-07 20:52 | 48.10030 | 16.76711 | 2992 ft | 277 kts | 193° |
| 2026-05-07 20:52 | 48.08370 | 16.75749 | 2989 ft | 240 kts | 219° |
| 2026-05-07 20:53 | 48.07286 | 16.74019 | 2730 ft | 223 kts | 244° |
| 2026-05-07 20:53 | 48.06824 | 16.71884 | 2501 ft | 212 kts | 268° |
| 2026-05-07 20:53 | 48.06959 | 16.69783 | 2267 ft | 197 kts | 289° |
| 2026-05-07 20:53 | 48.07503 | 16.68001 | 2199 ft | 180 kts | 297° |
| 2026-05-07 20:54 | 48.08036 | 16.66356 | 1937 ft | 169 kts | 296° |
| 2026-05-07 20:54 | 48.08524 | 16.64857 | 1768 ft | 149 kts | 297° |
| 2026-05-07 20:54 | 48.08956 | 16.63541 | 1528 ft | 135 kts | 296° |
| 2026-05-07 20:54 | 48.09349 | 16.62327 | 1343 ft | 126 kts | 294° |
| 2026-05-07 20:55 | 48.09739 | 16.61142 | 1161 ft | 127 kts | 293° |
| 2026-05-07 20:55 | 48.10118 | 16.59971 | 977 ft | 125 kts | 292° |
| 2026-05-07 20:55 | 48.10503 | 16.58800 | 830 ft | 125 kts | 290° |
| 2026-05-07 20:55 | 48.10881 | 16.57636 | 672 ft | 124 kts | 290° |
| 2026-05-07 20:56 | 48.11227 | 16.56564 | 611 ft | 98 kts | 296° |
| 2026-05-07 20:56 | 48.11452 | 16.55879 | 616 ft | 49 kts | 296° |
| 2026-05-07 20:56 | 48.11531 | 16.55640 | 620 ft | 13 kts | 296° |
| 2026-05-07 20:56 | 48.11574 | 16.55516 | 620 ft | 15 kts | 301° |
| 2026-05-07 20:57 | 48.11653 | 16.55357 | 616 ft | 21 kts | 312° |
| 2026-05-07 20:57 | 48.11758 | 16.55204 | 623 ft | 21 kts | 317° |
| 2026-05-07 20:57 | 48.11873 | 16.55153 | 611 ft | 15 kts | 30° |
| 2026-05-07 20:57 | 48.11866 | 16.55258 | 616 ft | 11 kts | 117° |
| 2026-05-07 20:58 | 48.11831 | 16.55368 | 622 ft | 12 kts | 116° |
| 2026-05-07 20:58 | 48.11792 | 16.55484 | 611 ft | 13 kts | 116° |
| 2026-05-07 20:58 | 48.11751 | 16.55609 | 616 ft | 14 kts | 116° |
| 2026-05-07 20:58 | 48.11708 | 16.55741 | 618 ft | 15 kts | 115° |
| 2026-05-07 20:59 | 48.11664 | 16.55882 | 616 ft | 15 kts | 115° |
| 2026-05-07 20:59 | 48.11615 | 16.56029 | 611 ft | 16 kts | 117° |
| 2026-05-07 20:59 | 48.11572 | 16.56157 | 619 ft | 13 kts | 116° |
| 2026-05-07 20:59 | 48.11531 | 16.56285 | 613 ft | 14 kts | 116° |
| 2026-05-07 21:00 | 48.11486 | 16.56422 | 622 ft | 15 kts | 116° |
| 2026-05-07 21:00 | 48.11439 | 16.56566 | 623 ft | 16 kts | 114° |
| 2026-05-07 21:00 | 48.11390 | 16.56718 | 616 ft | 17 kts | 116° |
| 2026-05-07 21:00 | 48.11338 | 16.56876 | 616 ft | 17 kts | 116° |
| 2026-05-07 21:01 | 48.11284 | 16.57040 | 618 ft | 18 kts | 116° |
| 2026-05-07 21:01 | 48.11231 | 16.57213 | 614 ft | 18 kts | 102° |
| 2026-05-07 21:01 | 48.11315 | 16.57333 | 617 ft | 18 kts | 26° |
| 2026-05-07 21:01 | 48.11430 | 16.57418 | 611 ft | 19 kts | 27° |
| 2026-05-07 21:02 | 48.11553 | 16.57456 | 618 ft | 18 kts | 343° |
| 2026-05-07 21:02 | 48.11663 | 16.57409 | 617 ft | 15 kts | 345° |
| 2026-05-07 21:02 | 48.11760 | 16.57368 | 613 ft | 13 kts | 342° |
| 2026-05-07 21:02 | 48.11826 | 16.57302 | 615 ft | 10 kts | 288° |
| 2026-05-07 21:03 | 48.11850 | 16.57213 | 622 ft | 8 kts | 287° |
| 2026-05-07 21:03 | 48.11854 | 16.57143 | 611 ft | 6 kts | 266° |
| 2026-05-07 21:03 | 48.11864 | 16.57093 | 616 ft | 4 kts | 277° |
| 2026-05-07 21:03 | 48.11854 | 16.57071 | 616 ft | 2 kts | 225° |
| 2026-05-07 21:04 | 48.11849 | 16.57067 | 614 ft | 0 kts | 202° |
| 2026-05-07 21:04 | 48.11832 | 16.57057 | 620 ft | 3 kts | 204° |
| 2026-05-07 21:04 | 48.11820 | 16.57048 | 616 ft | 1 kts | 205° |
| 2026-05-07 21:04 | 48.11813 | 16.57044 | 616 ft | 2 kts | 204° |
| 2026-05-07 21:05 | 48.11806 | 16.57039 | 613 ft | 0 kts | 205° |